sensor_id;sensor_type;location;lat;lon;timestamp;P1;durP1;ratioP1;P2;durP2;ratioP2
55633;SDS011;41504;53.162;6.788;2024-01-15T00:00:35;13.52;;;2.92;;
55633;SDS011;41504;53.162;6.788;2024-01-15T00:03:03;11.98;;;2.15;;
55633;SDS011;41504;53.162;6.788;2024-01-15T00:05:29;17.88;;;3.13;;
55633;SDS011;41504;53.162;6.788;2024-01-15T00:07:55;13.95;;;3.50;;
55633;SDS011;41504;53.162;6.788;2024-01-15T00:10:21;14.02;;;3.05;;
55633;SDS011;41504;53.162;6.788;2024-01-15T00:12:48;16.42;;;2.97;;
55633;SDS011;41504;53.162;6.788;2024-01-15T00:15:14;13.85;;;2.50;;
55633;SDS011;41504;53.162;6.788;2024-01-15T00:17:40;6.32;;;1.45;;
55633;SDS011;41504;53.162;6.788;2024-01-15T00:20:09;10.13;;;1.75;;
55633;SDS011;41504;53.162;6.788;2024-01-15T00:22:35;11.65;;;2.30;;
55633;SDS011;41504;53.162;6.788;2024-01-15T00:25:04;10.85;;;1.92;;
55633;SDS011;41504;53.162;6.788;2024-01-15T00:27:30;8.40;;;1.98;;
55633;SDS011;41504;53.162;6.788;2024-01-15T00:29:57;11.77;;;1.98;;
55633;SDS011;41504;53.162;6.788;2024-01-15T00:32:25;8.55;;;2.05;;
55633;SDS011;41504;53.162;6.788;2024-01-15T00:34:51;11.18;;;2.50;;
55633;SDS011;41504;53.162;6.788;2024-01-15T00:37:18;15.50;;;3.83;;
55633;SDS011;41504;53.162;6.788;2024-01-15T00:39:44;16.00;;;3.20;;
55633;SDS011;41504;53.162;6.788;2024-01-15T00:42:10;14.10;;;3.03;;
55633;SDS011;41504;53.162;6.788;2024-01-15T00:44:35;9.38;;;2.20;;
55633;SDS011;41504;53.162;6.788;2024-01-15T00:47:01;12.18;;;2.33;;
55633;SDS011;41504;53.162;6.788;2024-01-15T00:49:27;9.32;;;2.65;;
55633;SDS011;41504;53.162;6.788;2024-01-15T00:51:53;8.10;;;2.25;;
55633;SDS011;41504;53.162;6.788;2024-01-15T00:54:18;11.10;;;2.10;;
55633;SDS011;41504;53.162;6.788;2024-01-15T00:56:44;10.40;;;2.22;;
55633;SDS011;41504;53.162;6.788;2024-01-15T00:59:10;7.43;;;2.15;;
55633;SDS011;41504;53.162;6.788;2024-01-15T01:01:39;10.77;;;2.15;;
55633;SDS011;41504;53.162;6.788;2024-01-15T01:04:08;7.97;;;2.17;;
55633;SDS011;41504;53.162;6.788;2024-01-15T01:06:35;8.13;;;2.10;;
55633;SDS011;41504;53.162;6.788;2024-01-15T01:09:00;8.80;;;1.88;;
55633;SDS011;41504;53.162;6.788;2024-01-15T01:11:26;10.73;;;2.25;;
55633;SDS011;41504;53.162;6.788;2024-01-15T01:13:55;10.23;;;1.80;;
55633;SDS011;41504;53.162;6.788;2024-01-15T01:16:21;7.93;;;1.70;;
55633;SDS011;41504;53.162;6.788;2024-01-15T01:18:47;10.18;;;1.85;;
55633;SDS011;41504;53.162;6.788;2024-01-15T01:21:13;7.28;;;1.70;;
55633;SDS011;41504;53.162;6.788;2024-01-15T01:23:40;11.57;;;2.40;;
55633;SDS011;41504;53.162;6.788;2024-01-15T01:26:06;13.32;;;2.60;;
55633;SDS011;41504;53.162;6.788;2024-01-15T01:28:31;14.95;;;3.42;;
55633;SDS011;41504;53.162;6.788;2024-01-15T01:30:57;15.73;;;3.58;;
55633;SDS011;41504;53.162;6.788;2024-01-15T01:33:23;16.85;;;3.83;;
55633;SDS011;41504;53.162;6.788;2024-01-15T01:35:48;19.27;;;4.13;;
55633;SDS011;41504;53.162;6.788;2024-01-15T01:38:16;18.38;;;3.88;;
55633;SDS011;41504;53.162;6.788;2024-01-15T01:40:42;17.60;;;3.88;;
55633;SDS011;41504;53.162;6.788;2024-01-15T01:43:09;20.15;;;4.03;;
55633;SDS011;41504;53.162;6.788;2024-01-15T01:45:35;11.73;;;2.85;;
55633;SDS011;41504;53.162;6.788;2024-01-15T01:48:01;11.48;;;2.15;;
55633;SDS011;41504;53.162;6.788;2024-01-15T01:50:28;15.35;;;2.25;;
55633;SDS011;41504;53.162;6.788;2024-01-15T01:52:55;8.23;;;1.85;;
55633;SDS011;41504;53.162;6.788;2024-01-15T01:55:21;12.35;;;2.63;;
55633;SDS011;41504;53.162;6.788;2024-01-15T01:57:52;12.77;;;2.10;;
55633;SDS011;41504;53.162;6.788;2024-01-15T02:00:22;13.70;;;2.38;;
55633;SDS011;41504;53.162;6.788;2024-01-15T02:02:49;13.95;;;2.50;;
55633;SDS011;41504;53.162;6.788;2024-01-15T02:05:15;13.18;;;2.80;;
55633;SDS011;41504;53.162;6.788;2024-01-15T02:07:47;12.75;;;3.20;;
55633;SDS011;41504;53.162;6.788;2024-01-15T02:10:15;15.93;;;4.15;;
55633;SDS011;41504;53.162;6.788;2024-01-15T02:12:44;15.18;;;3.45;;
55633;SDS011;41504;53.162;6.788;2024-01-15T02:15:11;10.25;;;2.67;;
55633;SDS011;41504;53.162;6.788;2024-01-15T02:20:26;13.13;;;2.22;;
55633;SDS011;41504;53.162;6.788;2024-01-15T02:22:52;14.73;;;2.53;;
55633;SDS011;41504;53.162;6.788;2024-01-15T02:25:18;10.93;;;2.10;;
55633;SDS011;41504;53.162;6.788;2024-01-15T02:27:44;11.13;;;2.45;;
55633;SDS011;41504;53.162;6.788;2024-01-15T02:30:11;13.88;;;2.28;;
55633;SDS011;41504;53.162;6.788;2024-01-15T02:32:40;12.13;;;2.80;;
55633;SDS011;41504;53.162;6.788;2024-01-15T02:35:06;14.93;;;2.08;;
55633;SDS011;41504;53.162;6.788;2024-01-15T02:37:35;12.60;;;2.30;;
55633;SDS011;41504;53.162;6.788;2024-01-15T02:40:01;12.88;;;2.60;;
55633;SDS011;41504;53.162;6.788;2024-01-15T02:42:27;15.98;;;2.83;;
55633;SDS011;41504;53.162;6.788;2024-01-15T02:44:52;13.88;;;3.05;;
55633;SDS011;41504;53.162;6.788;2024-01-15T02:47:18;14.52;;;3.65;;
55633;SDS011;41504;53.162;6.788;2024-01-15T02:49:44;17.83;;;4.03;;
55633;SDS011;41504;53.162;6.788;2024-01-15T02:52:12;16.85;;;4.10;;
55633;SDS011;41504;53.162;6.788;2024-01-15T02:54:38;15.63;;;3.38;;
55633;SDS011;41504;53.162;6.788;2024-01-15T02:57:04;11.88;;;2.72;;
55633;SDS011;41504;53.162;6.788;2024-01-15T02:59:30;13.73;;;2.47;;
55633;SDS011;41504;53.162;6.788;2024-01-15T03:01:55;11.73;;;2.38;;
55633;SDS011;41504;53.162;6.788;2024-01-15T03:04:21;11.15;;;2.38;;
55633;SDS011;41504;53.162;6.788;2024-01-15T03:06:47;18.63;;;4.25;;
55633;SDS011;41504;53.162;6.788;2024-01-15T03:09:12;15.88;;;3.35;;
55633;SDS011;41504;53.162;6.788;2024-01-15T03:11:38;14.60;;;3.53;;
55633;SDS011;41504;53.162;6.788;2024-01-15T03:14:04;17.10;;;3.80;;
55633;SDS011;41504;53.162;6.788;2024-01-15T03:16:30;20.92;;;4.43;;
55633;SDS011;41504;53.162;6.788;2024-01-15T03:18:56;15.95;;;4.28;;
55633;SDS011;41504;53.162;6.788;2024-01-15T03:21:21;18.90;;;3.92;;
55633;SDS011;41504;53.162;6.788;2024-01-15T03:23:47;15.70;;;4.03;;
55633;SDS011;41504;53.162;6.788;2024-01-15T03:26:13;13.73;;;3.00;;
55633;SDS011;41504;53.162;6.788;2024-01-15T03:28:39;13.05;;;3.50;;
55633;SDS011;41504;53.162;6.788;2024-01-15T03:31:08;16.63;;;4.25;;
55633;SDS011;41504;53.162;6.788;2024-01-15T03:33:33;15.65;;;3.38;;
55633;SDS011;41504;53.162;6.788;2024-01-15T03:35:59;13.77;;;2.67;;
55633;SDS011;41504;53.162;6.788;2024-01-15T03:38:27;16.13;;;2.80;;
55633;SDS011;41504;53.162;6.788;2024-01-15T03:40:53;10.73;;;2.13;;
55633;SDS011;41504;53.162;6.788;2024-01-15T03:43:22;9.40;;;2.63;;
55633;SDS011;41504;53.162;6.788;2024-01-15T03:45:48;15.30;;;3.20;;
55633;SDS011;41504;53.162;6.788;2024-01-15T03:48:14;18.38;;;4.28;;
55633;SDS011;41504;53.162;6.788;2024-01-15T03:50:39;17.13;;;4.07;;
55633;SDS011;41504;53.162;6.788;2024-01-15T03:53:05;17.70;;;3.65;;
55633;SDS011;41504;53.162;6.788;2024-01-15T03:55:32;16.17;;;3.45;;
55633;SDS011;41504;53.162;6.788;2024-01-15T03:57:58;15.55;;;2.85;;
55633;SDS011;41504;53.162;6.788;2024-01-15T04:00:23;11.98;;;2.90;;
55633;SDS011;41504;53.162;6.788;2024-01-15T04:02:49;12.50;;;3.00;;
55633;SDS011;41504;53.162;6.788;2024-01-15T04:05:15;13.43;;;2.55;;
55633;SDS011;41504;53.162;6.788;2024-01-15T04:07:41;14.82;;;2.83;;
55633;SDS011;41504;53.162;6.788;2024-01-15T04:10:06;15.55;;;2.90;;
55633;SDS011;41504;53.162;6.788;2024-01-15T04:12:32;15.10;;;2.67;;
55633;SDS011;41504;53.162;6.788;2024-01-15T04:14:58;17.80;;;2.65;;
55633;SDS011;41504;53.162;6.788;2024-01-15T04:17:24;17.13;;;3.05;;
55633;SDS011;41504;53.162;6.788;2024-01-15T04:19:52;15.63;;;3.17;;
55633;SDS011;41504;53.162;6.788;2024-01-15T04:22:18;16.20;;;3.78;;
55633;SDS011;41504;53.162;6.788;2024-01-15T04:24:43;22.98;;;4.68;;
55633;SDS011;41504;53.162;6.788;2024-01-15T04:27:09;18.48;;;5.13;;
55633;SDS011;41504;53.162;6.788;2024-01-15T04:29:37;23.50;;;4.85;;
55633;SDS011;41504;53.162;6.788;2024-01-15T04:32:04;15.05;;;4.18;;
55633;SDS011;41504;53.162;6.788;2024-01-15T04:34:29;12.55;;;3.25;;
55633;SDS011;41504;53.162;6.788;2024-01-15T04:36:58;15.40;;;2.90;;
55633;SDS011;41504;53.162;6.788;2024-01-15T04:39:24;14.75;;;2.80;;
55633;SDS011;41504;53.162;6.788;2024-01-15T04:41:53;14.40;;;2.58;;
55633;SDS011;41504;53.162;6.788;2024-01-15T04:44:19;9.45;;;1.77;;
55633;SDS011;41504;53.162;6.788;2024-01-15T04:46:44;11.75;;;2.00;;
55633;SDS011;41504;53.162;6.788;2024-01-15T04:49:10;11.35;;;2.08;;
55633;SDS011;41504;53.162;6.788;2024-01-15T04:51:36;11.07;;;1.92;;
55633;SDS011;41504;53.162;6.788;2024-01-15T04:54:02;7.93;;;1.92;;
55633;SDS011;41504;53.162;6.788;2024-01-15T04:56:29;12.10;;;1.77;;
55633;SDS011;41504;53.162;6.788;2024-01-15T04:58:54;11.68;;;2.17;;
55633;SDS011;41504;53.162;6.788;2024-01-15T05:01:20;9.45;;;1.60;;
55633;SDS011;41504;53.162;6.788;2024-01-15T05:03:46;7.63;;;1.50;;
55633;SDS011;41504;53.162;6.788;2024-01-15T05:06:12;10.40;;;1.67;;
55633;SDS011;41504;53.162;6.788;2024-01-15T05:08:37;6.78;;;1.70;;
55633;SDS011;41504;53.162;6.788;2024-01-15T05:11:03;6.88;;;1.50;;
55633;SDS011;41504;53.162;6.788;2024-01-15T05:13:29;6.05;;;1.70;;
55633;SDS011;41504;53.162;6.788;2024-01-15T05:15:54;5.10;;;1.27;;
55633;SDS011;41504;53.162;6.788;2024-01-15T05:18:22;9.20;;;1.67;;
55633;SDS011;41504;53.162;6.788;2024-01-15T05:20:47;6.22;;;1.60;;
55633;SDS011;41504;53.162;6.788;2024-01-15T05:23:13;7.22;;;1.75;;
55633;SDS011;41504;53.162;6.788;2024-01-15T05:25:39;10.30;;;2.28;;
55633;SDS011;41504;53.162;6.788;2024-01-15T05:28:07;10.73;;;2.65;;
55633;SDS011;41504;53.162;6.788;2024-01-15T05:30:33;12.55;;;2.97;;
55633;SDS011;41504;53.162;6.788;2024-01-15T05:33:01;11.98;;;2.45;;
55633;SDS011;41504;53.162;6.788;2024-01-15T05:35:28;10.15;;;2.50;;
55633;SDS011;41504;53.162;6.788;2024-01-15T05:37:54;6.75;;;1.70;;
55633;SDS011;41504;53.162;6.788;2024-01-15T05:40:22;7.82;;;1.83;;
55633;SDS011;41504;53.162;6.788;2024-01-15T05:42:48;7.32;;;1.75;;
55633;SDS011;41504;53.162;6.788;2024-01-15T05:45:14;11.02;;;2.42;;
55633;SDS011;41504;53.162;6.788;2024-01-15T05:47:39;12.18;;;2.80;;
55633;SDS011;41504;53.162;6.788;2024-01-15T05:50:05;14.02;;;3.65;;
55633;SDS011;41504;53.162;6.788;2024-01-15T05:52:32;7.93;;;1.83;;
55633;SDS011;41504;53.162;6.788;2024-01-15T05:54:57;7.13;;;1.90;;
55633;SDS011;41504;53.162;6.788;2024-01-15T05:57:23;7.65;;;1.27;;
55633;SDS011;41504;53.162;6.788;2024-01-15T05:59:51;7.75;;;1.65;;
55633;SDS011;41504;53.162;6.788;2024-01-15T06:02:17;6.80;;;1.80;;
55633;SDS011;41504;53.162;6.788;2024-01-15T06:04:43;11.65;;;1.98;;
55633;SDS011;41504;53.162;6.788;2024-01-15T06:07:09;8.10;;;1.63;;
55633;SDS011;41504;53.162;6.788;2024-01-15T06:09:35;10.05;;;2.08;;
55633;SDS011;41504;53.162;6.788;2024-01-15T06:12:00;7.10;;;1.52;;
55633;SDS011;41504;53.162;6.788;2024-01-15T06:14:29;12.45;;;1.98;;
55633;SDS011;41504;53.162;6.788;2024-01-15T06:16:55;9.40;;;2.10;;
55633;SDS011;41504;53.162;6.788;2024-01-15T06:19:21;10.88;;;2.30;;
55633;SDS011;41504;53.162;6.788;2024-01-15T06:21:46;12.50;;;2.13;;
55633;SDS011;41504;53.162;6.788;2024-01-15T06:24:12;13.73;;;2.47;;
55633;SDS011;41504;53.162;6.788;2024-01-15T06:26:38;10.30;;;2.22;;
55633;SDS011;41504;53.162;6.788;2024-01-15T06:29:04;9.60;;;2.00;;
55633;SDS011;41504;53.162;6.788;2024-01-15T06:31:30;10.60;;;2.50;;
55633;SDS011;41504;53.162;6.788;2024-01-15T06:33:56;11.60;;;1.80;;
55633;SDS011;41504;53.162;6.788;2024-01-15T06:36:21;11.88;;;2.38;;
55633;SDS011;41504;53.162;6.788;2024-01-15T06:38:47;10.80;;;2.15;;
55633;SDS011;41504;53.162;6.788;2024-01-15T06:41:13;11.55;;;2.13;;
55633;SDS011;41504;53.162;6.788;2024-01-15T06:43:38;11.88;;;2.63;;
55633;SDS011;41504;53.162;6.788;2024-01-15T06:46:04;9.60;;;1.98;;
55633;SDS011;41504;53.162;6.788;2024-01-15T06:48:30;11.90;;;2.10;;
55633;SDS011;41504;53.162;6.788;2024-01-15T06:50:59;15.50;;;2.35;;
55633;SDS011;41504;53.162;6.788;2024-01-15T06:53:24;9.18;;;2.28;;
55633;SDS011;41504;53.162;6.788;2024-01-15T06:55:50;7.90;;;2.25;;
55633;SDS011;41504;53.162;6.788;2024-01-15T06:58:16;11.45;;;4.03;;
55633;SDS011;41504;53.162;6.788;2024-01-15T07:00:42;14.13;;;3.03;;
55633;SDS011;41504;53.162;6.788;2024-01-15T07:03:07;12.38;;;2.75;;
55633;SDS011;41504;53.162;6.788;2024-01-15T07:05:36;12.93;;;2.30;;
55633;SDS011;41504;53.162;6.788;2024-01-15T07:08:03;11.68;;;2.55;;
55633;SDS011;41504;53.162;6.788;2024-01-15T07:10:28;13.73;;;2.78;;
55633;SDS011;41504;53.162;6.788;2024-01-15T07:12:57;12.93;;;3.33;;
55633;SDS011;41504;53.162;6.788;2024-01-15T07:15:23;11.07;;;2.65;;
55633;SDS011;41504;53.162;6.788;2024-01-15T07:17:49;12.45;;;2.30;;
55633;SDS011;41504;53.162;6.788;2024-01-15T07:20:15;7.40;;;2.03;;
55633;SDS011;41504;53.162;6.788;2024-01-15T07:22:40;14.15;;;2.47;;
55633;SDS011;41504;53.162;6.788;2024-01-15T07:25:06;15.32;;;2.58;;
55633;SDS011;41504;53.162;6.788;2024-01-15T07:27:32;14.43;;;3.78;;
55633;SDS011;41504;53.162;6.788;2024-01-15T07:29:58;14.13;;;3.17;;
55633;SDS011;41504;53.162;6.788;2024-01-15T07:32:23;8.13;;;2.15;;
55633;SDS011;41504;53.162;6.788;2024-01-15T07:34:49;11.13;;;2.67;;
55633;SDS011;41504;53.162;6.788;2024-01-15T07:37:15;10.80;;;2.10;;
55633;SDS011;41504;53.162;6.788;2024-01-15T07:39:40;9.77;;;2.08;;
55633;SDS011;41504;53.162;6.788;2024-01-15T07:42:06;11.55;;;2.42;;
55633;SDS011;41504;53.162;6.788;2024-01-15T07:44:32;14.00;;;2.33;;
55633;SDS011;41504;53.162;6.788;2024-01-15T07:46:58;11.32;;;2.80;;
55633;SDS011;41504;53.162;6.788;2024-01-15T07:49:24;19.35;;;3.70;;
55633;SDS011;41504;53.162;6.788;2024-01-15T07:51:52;13.32;;;3.15;;
55633;SDS011;41504;53.162;6.788;2024-01-15T07:54:18;12.07;;;2.55;;
55633;SDS011;41504;53.162;6.788;2024-01-15T07:56:55;17.55;;;2.70;;
55633;SDS011;41504;53.162;6.788;2024-01-15T07:59:22;15.38;;;2.97;;
55633;SDS011;41504;53.162;6.788;2024-01-15T08:01:51;14.50;;;3.08;;
55633;SDS011;41504;53.162;6.788;2024-01-15T08:04:25;10.20;;;2.60;;
55633;SDS011;41504;53.162;6.788;2024-01-15T08:06:50;11.50;;;2.47;;
55633;SDS011;41504;53.162;6.788;2024-01-15T08:09:16;14.02;;;2.90;;
55633;SDS011;41504;53.162;6.788;2024-01-15T08:11:45;13.48;;;2.85;;
55633;SDS011;41504;53.162;6.788;2024-01-15T08:14:11;11.00;;;2.40;;
55633;SDS011;41504;53.162;6.788;2024-01-15T08:16:37;13.48;;;2.90;;
55633;SDS011;41504;53.162;6.788;2024-01-15T08:19:03;8.77;;;2.45;;
55633;SDS011;41504;53.162;6.788;2024-01-15T08:21:29;11.57;;;2.58;;
55633;SDS011;41504;53.162;6.788;2024-01-15T08:23:58;9.57;;;2.22;;
55633;SDS011;41504;53.162;6.788;2024-01-15T08:26:25;12.43;;;2.30;;
55633;SDS011;41504;53.162;6.788;2024-01-15T08:28:51;8.05;;;2.15;;
55633;SDS011;41504;53.162;6.788;2024-01-15T08:31:16;7.90;;;1.75;;
55633;SDS011;41504;53.162;6.788;2024-01-15T08:33:42;11.75;;;2.22;;
55633;SDS011;41504;53.162;6.788;2024-01-15T08:36:11;12.88;;;2.50;;
55633;SDS011;41504;53.162;6.788;2024-01-15T08:38:37;7.55;;;1.80;;
55633;SDS011;41504;53.162;6.788;2024-01-15T08:41:03;13.43;;;2.00;;
55633;SDS011;41504;53.162;6.788;2024-01-15T08:43:29;10.38;;;2.47;;
55633;SDS011;41504;53.162;6.788;2024-01-15T08:45:56;9.98;;;2.40;;
55633;SDS011;41504;53.162;6.788;2024-01-15T08:48:22;9.93;;;2.33;;
55633;SDS011;41504;53.162;6.788;2024-01-15T08:50:48;9.95;;;2.40;;
55633;SDS011;41504;53.162;6.788;2024-01-15T08:53:14;11.20;;;3.20;;
55633;SDS011;41504;53.162;6.788;2024-01-15T08:55:39;14.55;;;3.85;;
55633;SDS011;41504;53.162;6.788;2024-01-15T08:58:07;10.70;;;2.78;;
55633;SDS011;41504;53.162;6.788;2024-01-15T09:00:33;11.18;;;2.85;;
55633;SDS011;41504;53.162;6.788;2024-01-15T09:02:59;6.32;;;1.80;;
55633;SDS011;41504;53.162;6.788;2024-01-15T09:05:25;8.07;;;2.15;;
55633;SDS011;41504;53.162;6.788;2024-01-15T09:07:51;8.13;;;3.50;;
55633;SDS011;41504;53.162;6.788;2024-01-15T09:10:20;10.90;;;2.33;;
55633;SDS011;41504;53.162;6.788;2024-01-15T09:12:48;11.05;;;2.42;;
55633;SDS011;41504;53.162;6.788;2024-01-15T09:15:16;8.38;;;2.33;;
55633;SDS011;41504;53.162;6.788;2024-01-15T09:17:42;8.98;;;3.17;;
55633;SDS011;41504;53.162;6.788;2024-01-15T09:20:08;8.60;;;2.10;;
55633;SDS011;41504;53.162;6.788;2024-01-15T09:22:35;10.95;;;2.75;;
55633;SDS011;41504;53.162;6.788;2024-01-15T09:25:04;8.07;;;1.88;;
55633;SDS011;41504;53.162;6.788;2024-01-15T09:27:30;10.02;;;1.92;;
55633;SDS011;41504;53.162;6.788;2024-01-15T09:29:56;7.38;;;1.65;;
55633;SDS011;41504;53.162;6.788;2024-01-15T09:32:21;8.88;;;1.88;;
55633;SDS011;41504;53.162;6.788;2024-01-15T09:34:47;17.08;;;6.43;;
55633;SDS011;41504;53.162;6.788;2024-01-15T09:37:13;11.73;;;3.25;;
55633;SDS011;41504;53.162;6.788;2024-01-15T09:39:40;10.60;;;2.15;;
55633;SDS011;41504;53.162;6.788;2024-01-15T09:42:06;12.40;;;3.60;;
55633;SDS011;41504;53.162;6.788;2024-01-15T09:44:33;13.23;;;3.92;;
55633;SDS011;41504;53.162;6.788;2024-01-15T09:46:59;8.35;;;3.05;;
55633;SDS011;41504;53.162;6.788;2024-01-15T09:49:26;13.32;;;4.93;;
55633;SDS011;41504;53.162;6.788;2024-01-15T09:51:52;11.45;;;4.13;;
55633;SDS011;41504;53.162;6.788;2024-01-15T09:54:22;8.65;;;2.10;;
55633;SDS011;41504;53.162;6.788;2024-01-15T09:56:48;6.72;;;1.73;;
55633;SDS011;41504;53.162;6.788;2024-01-15T09:59:18;7.85;;;2.05;;
55633;SDS011;41504;53.162;6.788;2024-01-15T10:01:45;6.55;;;1.67;;
55633;SDS011;41504;53.162;6.788;2024-01-15T10:04:12;7.35;;;2.05;;
55633;SDS011;41504;53.162;6.788;2024-01-15T10:06:39;9.70;;;2.38;;
55633;SDS011;41504;53.162;6.788;2024-01-15T10:09:10;5.63;;;1.80;;
55633;SDS011;41504;53.162;6.788;2024-01-15T10:11:39;6.18;;;1.55;;
55633;SDS011;41504;53.162;6.788;2024-01-15T10:14:11;9.65;;;1.98;;
55633;SDS011;41504;53.162;6.788;2024-01-15T10:16:38;8.30;;;1.63;;
55633;SDS011;41504;53.162;6.788;2024-01-15T10:19:04;8.52;;;1.88;;
55633;SDS011;41504;53.162;6.788;2024-01-15T10:21:33;10.18;;;1.98;;
55633;SDS011;41504;53.162;6.788;2024-01-15T10:24:02;11.23;;;2.10;;
55633;SDS011;41504;53.162;6.788;2024-01-15T10:26:29;12.18;;;2.30;;
55633;SDS011;41504;53.162;6.788;2024-01-15T10:28:55;13.60;;;2.25;;
55633;SDS011;41504;53.162;6.788;2024-01-15T10:31:23;10.82;;;2.70;;
55633;SDS011;41504;53.162;6.788;2024-01-15T10:33:49;10.93;;;2.83;;
55633;SDS011;41504;53.162;6.788;2024-01-15T10:36:15;11.18;;;3.42;;
55633;SDS011;41504;53.162;6.788;2024-01-15T10:38:45;11.77;;;3.20;;
55633;SDS011;41504;53.162;6.788;2024-01-15T10:41:12;16.25;;;4.05;;
55633;SDS011;41504;53.162;6.788;2024-01-15T10:43:38;11.38;;;3.00;;
55633;SDS011;41504;53.162;6.788;2024-01-15T10:46:06;8.25;;;2.42;;
55633;SDS011;41504;53.162;6.788;2024-01-15T10:48:32;8.88;;;1.95;;
55633;SDS011;41504;53.162;6.788;2024-01-15T10:51:00;8.98;;;1.83;;
55633;SDS011;41504;53.162;6.788;2024-01-15T10:53:37;9.80;;;2.03;;
55633;SDS011;41504;53.162;6.788;2024-01-15T10:56:04;9.00;;;2.25;;
55633;SDS011;41504;53.162;6.788;2024-01-15T10:58:31;10.13;;;2.90;;
55633;SDS011;41504;53.162;6.788;2024-01-15T11:00:58;10.77;;;2.30;;
55633;SDS011;41504;53.162;6.788;2024-01-15T11:03:30;12.90;;;2.63;;
55633;SDS011;41504;53.162;6.788;2024-01-15T11:05:56;9.50;;;2.03;;
55633;SDS011;41504;53.162;6.788;2024-01-15T11:08:24;7.78;;;2.17;;
55633;SDS011;41504;53.162;6.788;2024-01-15T11:10:51;10.00;;;2.28;;
55633;SDS011;41504;53.162;6.788;2024-01-15T11:13:21;13.55;;;3.90;;
55633;SDS011;41504;53.162;6.788;2024-01-15T11:16:05;13.43;;;3.15;;
55633;SDS011;41504;53.162;6.788;2024-01-15T11:18:42;9.27;;;2.50;;
55633;SDS011;41504;53.162;6.788;2024-01-15T11:21:26;6.18;;;1.60;;
55633;SDS011;41504;53.162;6.788;2024-01-15T11:26:35;6.25;;;1.75;;
55633;SDS011;41504;53.162;6.788;2024-01-15T11:29:28;11.55;;;1.85;;
55633;SDS011;41504;53.162;6.788;2024-01-15T11:40:37;4.68;;;1.50;;
55633;SDS011;41504;53.162;6.788;2024-01-15T11:43:07;6.63;;;1.50;;
55633;SDS011;41504;53.162;6.788;2024-01-15T11:45:34;3.72;;;1.10;;
55633;SDS011;41504;53.162;6.788;2024-01-15T11:50:40;7.63;;;1.63;;
55633;SDS011;41504;53.162;6.788;2024-01-15T11:53:27;3.47;;;1.05;;
55633;SDS011;41504;53.162;6.788;2024-01-15T11:56:20;3.17;;;0.98;;
55633;SDS011;41504;53.162;6.788;2024-01-15T11:58:48;3.70;;;1.27;;
55633;SDS011;41504;53.162;6.788;2024-01-15T12:01:15;2.92;;;1.23;;
55633;SDS011;41504;53.162;6.788;2024-01-15T12:03:42;3.90;;;0.80;;
55633;SDS011;41504;53.162;6.788;2024-01-15T12:06:08;5.60;;;1.00;;
55633;SDS011;41504;53.162;6.788;2024-01-15T12:08:35;5.10;;;1.30;;
55633;SDS011;41504;53.162;6.788;2024-01-15T12:11:03;4.55;;;1.00;;
55633;SDS011;41504;53.162;6.788;2024-01-15T12:13:32;5.85;;;1.05;;
55633;SDS011;41504;53.162;6.788;2024-01-15T12:15:58;3.28;;;0.70;;
55633;SDS011;41504;53.162;6.788;2024-01-15T12:18:29;3.05;;;0.90;;
55633;SDS011;41504;53.162;6.788;2024-01-15T12:20:58;3.97;;;1.00;;
55633;SDS011;41504;53.162;6.788;2024-01-15T12:23:24;3.38;;;0.88;;
55633;SDS011;41504;53.162;6.788;2024-01-15T12:25:52;4.97;;;1.08;;
55633;SDS011;41504;53.162;6.788;2024-01-15T12:28:18;3.90;;;1.10;;
55633;SDS011;41504;53.162;6.788;2024-01-15T12:30:46;3.67;;;1.20;;
55633;SDS011;41504;53.162;6.788;2024-01-15T12:33:14;5.03;;;1.17;;
55633;SDS011;41504;53.162;6.788;2024-01-15T12:35:39;5.47;;;1.00;;
55633;SDS011;41504;53.162;6.788;2024-01-15T12:38:05;5.25;;;1.10;;
55633;SDS011;41504;53.162;6.788;2024-01-15T12:40:31;4.85;;;1.60;;
55633;SDS011;41504;53.162;6.788;2024-01-15T12:42:59;4.95;;;1.13;;
55633;SDS011;41504;53.162;6.788;2024-01-15T12:45:25;5.03;;;1.40;;
55633;SDS011;41504;53.162;6.788;2024-01-15T12:47:51;6.10;;;1.50;;
55633;SDS011;41504;53.162;6.788;2024-01-15T12:50:23;9.63;;;1.70;;
55633;SDS011;41504;53.162;6.788;2024-01-15T12:52:50;7.50;;;1.40;;
55633;SDS011;41504;53.162;6.788;2024-01-15T12:55:16;5.75;;;1.30;;
55633;SDS011;41504;53.162;6.788;2024-01-15T12:57:42;6.72;;;1.67;;
55633;SDS011;41504;53.162;6.788;2024-01-15T13:00:08;5.53;;;1.58;;
55633;SDS011;41504;53.162;6.788;2024-01-15T13:02:37;7.97;;;1.63;;
55633;SDS011;41504;53.162;6.788;2024-01-15T13:05:07;8.90;;;1.73;;
55633;SDS011;41504;53.162;6.788;2024-01-15T13:07:36;9.57;;;1.65;;
55633;SDS011;41504;53.162;6.788;2024-01-15T13:10:02;7.95;;;1.75;;
55633;SDS011;41504;53.162;6.788;2024-01-15T13:12:31;10.93;;;1.98;;
55633;SDS011;41504;53.162;6.788;2024-01-15T13:14:58;10.85;;;2.08;;
55633;SDS011;41504;53.162;6.788;2024-01-15T13:17:23;6.32;;;1.60;;
55633;SDS011;41504;53.162;6.788;2024-01-15T13:19:52;8.85;;;1.60;;
55633;SDS011;41504;53.162;6.788;2024-01-15T13:22:18;7.13;;;2.08;;
55633;SDS011;41504;53.162;6.788;2024-01-15T13:24:43;12.48;;;2.40;;
55633;SDS011;41504;53.162;6.788;2024-01-15T13:27:09;9.77;;;1.80;;
55633;SDS011;41504;53.162;6.788;2024-01-15T13:29:35;9.82;;;1.92;;
55633;SDS011;41504;53.162;6.788;2024-01-15T13:32:01;10.05;;;1.80;;
55633;SDS011;41504;53.162;6.788;2024-01-15T13:34:27;8.18;;;2.22;;
55633;SDS011;41504;53.162;6.788;2024-01-15T13:36:54;10.63;;;2.17;;
55633;SDS011;41504;53.162;6.788;2024-01-15T13:39:22;8.20;;;1.65;;
55633;SDS011;41504;53.162;6.788;2024-01-15T13:41:48;8.32;;;1.80;;
55633;SDS011;41504;53.162;6.788;2024-01-15T13:44:14;10.80;;;2.00;;
55633;SDS011;41504;53.162;6.788;2024-01-15T13:46:40;5.32;;;1.60;;
55633;SDS011;41504;53.162;6.788;2024-01-15T13:49:06;9.25;;;1.95;;
55633;SDS011;41504;53.162;6.788;2024-01-15T13:51:34;6.32;;;1.50;;
55633;SDS011;41504;53.162;6.788;2024-01-15T13:54:00;6.15;;;1.42;;
55633;SDS011;41504;53.162;6.788;2024-01-15T13:56:26;5.97;;;1.35;;
55633;SDS011;41504;53.162;6.788;2024-01-15T13:58:56;8.13;;;1.42;;
55633;SDS011;41504;53.162;6.788;2024-01-15T14:01:23;6.13;;;1.30;;
55633;SDS011;41504;53.162;6.788;2024-01-15T14:03:49;5.32;;;1.35;;
55633;SDS011;41504;53.162;6.788;2024-01-15T14:06:15;5.18;;;1.48;;
55633;SDS011;41504;53.162;6.788;2024-01-15T14:08:41;4.63;;;1.50;;
55633;SDS011;41504;53.162;6.788;2024-01-15T14:11:06;7.13;;;1.60;;
55633;SDS011;41504;53.162;6.788;2024-01-15T14:13:32;6.50;;;1.40;;
55633;SDS011;41504;53.162;6.788;2024-01-15T14:15:58;8.43;;;1.50;;
55633;SDS011;41504;53.162;6.788;2024-01-15T14:18:26;9.60;;;2.42;;
55633;SDS011;41504;53.162;6.788;2024-01-15T14:20:52;14.57;;;3.47;;
55633;SDS011;41504;53.162;6.788;2024-01-15T14:23:19;12.57;;;3.28;;
55633;SDS011;41504;53.162;6.788;2024-01-15T14:25:45;20.13;;;5.75;;
55633;SDS011;41504;53.162;6.788;2024-01-15T14:28:10;14.98;;;5.63;;
55633;SDS011;41504;53.162;6.788;2024-01-15T14:33:07;18.58;;;6.68;;
55633;SDS011;41504;53.162;6.788;2024-01-15T14:35:37;13.25;;;4.45;;
55633;SDS011;41504;53.162;6.788;2024-01-15T14:38:03;10.40;;;2.85;;
55633;SDS011;41504;53.162;6.788;2024-01-15T14:40:29;7.03;;;1.83;;
55633;SDS011;41504;53.162;6.788;2024-01-15T14:42:55;9.50;;;2.05;;
55633;SDS011;41504;53.162;6.788;2024-01-15T14:45:20;8.82;;;1.85;;
55633;SDS011;41504;53.162;6.788;2024-01-15T14:47:46;8.45;;;2.00;;
55633;SDS011;41504;53.162;6.788;2024-01-15T14:50:12;8.23;;;2.40;;
55633;SDS011;41504;53.162;6.788;2024-01-15T14:52:38;9.05;;;2.97;;
55633;SDS011;41504;53.162;6.788;2024-01-15T14:55:11;9.05;;;3.17;;
55633;SDS011;41504;53.162;6.788;2024-01-15T14:57:37;7.75;;;2.15;;